Time;durP1;ratioP1;P1;durP2;ratioP2;P2;SDS_P1;SDS_P2;PMS_P1;PMS_P2;Temp;Humidity;BMP_temperature;BMP_pressure;BME280_temperature;BME280_humidity;BME280_pressure;Samples;Min_cycle;Max_cycle;Signal;HPM_P1;HPM_P2
2022/07/12 00:02:15;;;;;;;1.10;1.10;;;;;;;17.39;57.96;102185.19;4968371;28;97068;-50
2022/07/12 00:04:41;;;;;;;1.07;0.97;;;;;;;17.38;57.94;102178.13;4976698;28;97104;-51
2022/07/12 00:07:06;;;;;;;1.20;1.20;;;;;;;17.37;57.80;102179.38;4976179;28;96985;-50
2022/07/12 00:09:32;;;;;;;1.17;1.17;;;;;;;17.35;57.96;102182.66;4975343;28;97570;-51
2022/07/12 00:11:58;;;;;;;1.20;1.10;;;;;;;17.33;57.92;102192.78;4979294;28;99798;-51
2022/07/12 00:14:24;;;;;;;2.13;1.30;;;;;;;17.30;57.88;102194.53;4979831;28;97073;-51
2022/07/12 00:16:49;;;;;;;1.40;1.30;;;;;;;17.26;57.88;102196.78;4995845;22;97461;-50
2022/07/12 00:19:15;;;;;;;2.00;1.30;;;;;;;17.21;57.74;102195.53;4996257;28;97365;-50
2022/07/12 00:21:40;;;;;;;0.80;0.80;;;;;;;17.14;57.83;102201.59;4992833;28;97316;-51
2022/07/12 00:24:06;;;;;;;0.80;0.80;;;;;;;17.10;57.86;102197.53;4997603;28;97540;-50
2022/07/12 00:26:31;;;;;;;1.30;1.30;;;;;;;17.09;57.92;102204.34;4989711;28;98239;-53
2022/07/12 00:28:57;;;;;;;1.10;1.10;;;;;;;17.02;57.79;102194.44;4996067;28;97276;-51
2022/07/12 00:31:22;;;;;;;1.00;1.00;;;;;;;16.97;57.79;102200.00;4998981;28;97070;-51
2022/07/12 00:33:48;;;;;;;1.10;1.10;;;;;;;16.95;58.00;102199.75;5000218;28;96772;-51
2022/07/12 00:36:13;;;;;;;1.30;1.30;;;;;;;16.94;58.03;102198.97;5000053;28;98517;-51
2022/07/12 00:38:38;;;;;;;1.20;1.20;;;;;;;16.92;57.91;102197.94;4999443;28;96985;-49
2022/07/12 00:41:05;;;;;;;1.53;1.27;;;;;;;16.88;57.97;102200.97;4996016;28;97367;-51
2022/07/12 00:43:30;;;;;;;0.90;0.90;;;;;;;16.86;57.98;102202.72;4999600;28;96934;-51
2022/07/12 00:45:56;;;;;;;1.23;1.13;;;;;;;16.83;57.99;102198.16;4993606;28;96705;-51
2022/07/12 00:48:21;;;;;;;1.03;1.03;;;;;;;16.78;58.15;102180.19;4997347;28;97094;-50
2022/07/12 00:50:48;;;;;;;1.13;1.13;;;;;;;16.75;58.07;102194.34;4995968;28;96846;-49
2022/07/12 00:53:14;;;;;;;1.47;1.20;;;;;;;16.73;58.17;102186.47;4997041;28;97029;-51
2022/07/12 00:55:40;;;;;;;0.90;0.90;;;;;;;16.74;58.24;102185.22;4993564;28;97030;-50
2022/07/12 00:58:05;;;;;;;1.00;0.87;;;;;;;16.77;58.30;102180.69;4999085;28;96855;-51
2022/07/12 01:00:31;;;;;;;1.27;1.23;;;;;;;16.79;58.35;102181.72;4999677;28;96946;-51
2022/07/12 01:02:59;;;;;;;1.00;1.00;;;;;;;16.80;58.29;102180.44;5001752;28;97401;-51
2022/07/12 01:05:27;;;;;;;1.53;1.43;;;;;;;16.81;58.42;102184.75;4997554;28;97556;-51
2022/07/12 01:07:54;;;;;;;1.30;1.30;;;;;;;16.83;58.24;102182.25;4996136;28;97338;-51
2022/07/12 01:10:20;;;;;;;0.80;0.80;;;;;;;16.85;58.32;102178.97;4994090;28;97419;-51
2022/07/12 01:12:46;;;;;;;1.00;1.00;;;;;;;16.86;58.49;102180.50;4998322;28;97369;-51
2022/07/12 01:15:11;;;;;;;1.10;1.10;;;;;;;16.90;58.53;102186.56;4992083;28;97932;-51
2022/07/12 01:17:39;;;;;;;0.90;0.90;;;;;;;16.92;58.53;102182.03;4999262;28;97723;-51
2022/07/12 01:20:06;;;;;;;1.30;1.20;;;;;;;16.95;58.50;102183.06;5003039;28;96913;-51
2022/07/12 01:22:33;;;;;;;1.03;1.03;;;;;;;16.95;58.59;102175.47;4995832;28;97000;-50
2022/07/12 01:25:00;;;;;;;1.37;1.27;;;;;;;16.93;58.65;102180.00;4999245;28;97207;-51
2022/07/12 01:27:26;;;;;;;1.33;1.23;;;;;;;16.92;58.76;102170.91;4997959;28;96803;-51
2022/07/12 01:29:51;;;;;;;0.90;0.90;;;;;;;16.93;58.73;102185.56;4998467;28;97304;-49
2022/07/12 01:32:26;;;;;;;1.13;1.13;;;;;;;16.96;58.79;102190.13;4996599;28;97332;-51
2022/07/12 01:35:03;;;;;;;1.00;1.00;;;;;;;16.94;59.01;102176.72;5001669;28;97246;-51
2022/07/12 01:37:30;;;;;;;0.93;0.93;;;;;;;16.94;58.98;102181.53;4993276;28;96844;-50
2022/07/12 01:39:57;;;;;;;1.00;1.00;;;;;;;16.93;59.04;102174.44;4997112;28;97083;-51
2022/07/12 01:42:24;;;;;;;1.00;1.00;;;;;;;16.90;59.03;102173.44;4999592;28;97678;-51
2022/07/12 01:44:51;;;;;;;0.80;0.80;;;;;;;16.93;59.11;102180.75;5000232;28;97345;-51
2022/07/12 01:47:18;;;;;;;1.07;1.07;;;;;;;16.94;59.14;102171.16;5000950;28;96929;-50
2022/07/12 01:49:43;;;;;;;1.30;1.30;;;;;;;16.95;59.21;102169.91;4998912;28;96918;-52
2022/07/12 01:52:09;;;;;;;1.13;1.03;;;;;;;16.94;59.27;102171.16;4998994;28;97299;-50
2022/07/12 01:54:35;;;;;;;0.80;0.80;;;;;;;16.95;59.38;102169.91;4999009;28;96930;-51
2022/07/12 01:57:01;;;;;;;0.97;0.97;;;;;;;16.98;59.46;102166.13;4997033;28;96784;-51
2022/07/12 01:59:27;;;;;;;1.00;1.00;;;;;;;16.99;59.35;102167.63;5001673;28;97044;-53
2022/07/12 02:01:54;;;;;;;0.90;0.90;;;;;;;17.01;59.51;102159.56;5000094;28;97297;-51
2022/07/12 02:04:19;;;;;;;1.37;1.10;;;;;;;17.02;59.40;102152.72;4998950;28;100117;-51
2022/07/12 02:06:45;;;;;;;1.10;1.10;;;;;;;17.06;59.42;102160.81;4999379;28;97246;-51
2022/07/12 02:09:11;;;;;;;1.23;1.00;;;;;;;17.08;59.56;102155.56;5001151;28;96986;-51
2022/07/12 02:11:36;;;;;;;1.20;1.10;;;;;;;17.10;59.57;102161.38;5000908;28;97455;-51
2022/07/12 02:14:03;;;;;;;2.10;1.33;;;;;;;17.03;59.59;102161.84;4999334;28;97107;-51
2022/07/12 02:16:28;;;;;;;1.27;1.20;;;;;;;17.02;59.67;102163.09;4998696;28;96775;-52
2022/07/12 02:18:53;;;;;;;1.20;1.10;;;;;;;17.05;59.60;102167.66;4997216;28;97410;-51
2022/07/12 02:21:19;;;;;;;1.20;1.00;;;;;;;17.06;59.75;102160.81;5000101;28;97409;-50
2022/07/12 02:23:44;;;;;;;1.47;1.20;;;;;;;17.05;59.78;102159.31;5002045;28;97156;-51
2022/07/12 02:26:09;;;;;;;1.10;1.00;;;;;;;17.06;59.72;102164.38;5004549;28;96873;-51
2022/07/12 02:28:35;;;;;;;1.07;1.00;;;;;;;17.05;59.80;102168.44;4991201;28;97491;-51
2022/07/12 02:31:00;;;;;;;2.30;0.80;;;;;;;17.01;59.91;102170.69;4989561;28;96929;-51
2022/07/12 02:33:25;;;;;;;0.97;0.97;;;;;;;16.97;60.09;102172.94;4992272;28;97108;-51
2022/07/12 02:35:51;;;;;;;1.23;1.13;;;;;;;16.94;60.18;102168.38;4994493;28;97335;-51
2022/07/12 02:38:16;;;;;;;0.93;0.93;;;;;;;16.96;60.28;102176.22;4995337;28;96968;-51
2022/07/12 02:40:53;;;;;;;0.80;0.80;;;;;;;16.97;60.28;102180.53;4997066;28;97044;-50
2022/07/12 02:43:36;;;;;;;1.33;0.90;;;;;;;17.01;60.11;102178.28;5000858;28;96996;-50
2022/07/12 02:46:08;;;;;;;1.20;1.20;;;;;;;17.04;60.32;102178.03;4998273;28;97183;-56
2022/07/12 02:48:35;;;;;;;1.07;0.90;;;;;;;17.06;60.13;102181.06;5000525;28;97877;-50
2022/07/12 02:51:01;;;;;;;1.20;1.20;;;;;;;17.08;60.23;102188.91;4989288;28;100687;-48
2022/07/12 02:53:27;;;;;;;0.93;0.93;;;;;;;17.11;60.18;102190.69;4989358;28;96771;-51
2022/07/12 02:55:52;;;;;;;1.47;1.37;;;;;;;17.09;60.19;102188.41;4988162;28;96927;-51
2022/07/12 02:58:18;;;;;;;1.17;1.17;;;;;;;17.10;60.27;102198.25;4996127;28;97220;-51
2022/07/12 03:00:44;;;;;;;1.33;1.33;;;;;;;17.10;60.22;102195.47;4992742;28;98648;-51
2022/07/12 03:03:12;;;;;;;4.77;1.30;;;;;;;17.09;60.31;102196.00;4994198;28;97327;-51
2022/07/12 03:05:38;;;;;;;1.30;1.20;;;;;;;17.09;60.47;102196.00;4995112;28;97339;-50
2022/07/12 03:08:03;;;;;;;1.43;1.37;;;;;;;17.11;60.35;102201.81;4997552;28;97384;-51
2022/07/12 03:10:29;;;;;;;1.03;1.03;;;;;;;17.16;60.24;102201.06;4997239;28;96996;-51
2022/07/12 03:12:54;;;;;;;1.20;1.20;;;;;;;17.16;60.39;102204.63;4993259;28;97019;-51
2022/07/12 03:15:19;;;;;;;0.97;0.97;;;;;;;17.18;60.61;102212.47;4991235;28;97090;-51
2022/07/12 03:17:45;;;;;;;1.27;1.27;;;;;;;17.22;60.38;102215.75;4988605;28;96869;-51
2022/07/12 03:20:11;;;;;;;1.30;1.30;;;;;;;17.21;60.54;102222.59;4993585;28;100396;-48
2022/07/12 03:22:48;;;;;;;1.53;1.30;;;;;;;17.16;60.88;102221.31;4994742;28;97649;-50
2022/07/12 03:25:14;;;;;;;1.93;1.20;;;;;;;17.16;60.66;102228.88;4992983;28;97114;-51
2022/07/12 03:27:40;;;;;;;1.10;1.00;;;;;;;17.16;60.64;102229.66;4995215;28;97028;-51
2022/07/12 03:30:06;;;;;;;2.27;1.30;;;;;;;17.17;60.54;102233.94;5001639;28;99363;-51
2022/07/12 03:32:32;;;;;;;1.13;1.10;;;;;;;17.18;60.69;102238.25;4994607;28;96885;-51
2022/07/12 03:34:58;;;;;;;1.47;1.37;;;;;;;17.17;60.83;102238.75;4994055;28;97457;-51
2022/07/12 03:37:23;;;;;;;1.10;1.00;;;;;;;17.16;60.94;102242.81;4994830;28;97306;-51
2022/07/12 03:39:49;;;;;;;1.10;1.00;;;;;;;17.13;61.04;102244.56;5004024;28;97799;-51
2022/07/12 03:42:14;;;;;;;1.33;1.33;;;;;;;17.13;61.02;102246.56;4992767;28;101726;-51
2022/07/12 03:44:39;;;;;;;1.10;1.10;;;;;;;17.17;61.03;102250.63;4984387;28;97282;-51
2022/07/12 03:47:05;;;;;;;2.20;1.00;;;;;;;17.17;61.16;102252.66;5000458;28;97510;-51
2022/07/12 03:49:30;;;;;;;1.30;1.20;;;;;;;17.16;61.19;102251.16;4999080;28;97397;-51
2022/07/12 03:51:56;;;;;;;1.20;1.20;;;;;;;17.19;61.22;102242.56;4997362;28;97151;-48
2022/07/12 03:54:21;;;;;;;1.10;1.10;;;;;;;17.22;61.10;102240.78;4999763;28;97255;-51
2022/07/12 03:59:31;;;;;;;1.60;1.50;;;;;;;17.28;61.09;102247.13;4999350;28;101754;-50
2022/07/12 04:01:56;;;;;;;1.30;1.20;;;;;;;17.32;60.94;102253.22;4995211;28;97458;-51
2022/07/12 04:04:21;;;;;;;1.00;1.00;;;;;;;17.35;60.81;102246.66;4995502;28;98624;-50
2022/07/12 04:06:47;;;;;;;1.50;1.23;;;;;;;17.38;61.02;102242.13;4995123;28;97258;-50
2022/07/12 04:09:13;;;;;;;1.50;1.40;;;;;;;17.40;61.16;102257.06;5013406;27;98865;-49
2022/07/12 04:11:38;;;;;;;1.77;1.67;;;;;;;17.44;61.08;102252.00;4998411;28;97695;-51
2022/07/12 04:14:03;;;;;;;1.63;1.53;;;;;;;17.46;60.99;102254.28;4999128;28;97381;-50
2022/07/12 04:16:29;;;;;;;1.40;1.30;;;;;;;17.47;61.23;102264.94;4998019;28;96987;-51
2022/07/12 04:18:55;;;;;;;1.80;1.70;;;;;;;17.49;61.21;102278.31;4998980;28;97307;-51
2022/07/12 04:21:21;;;;;;;1.47;1.47;;;;;;;17.48;61.37;102268.44;4998173;28;97418;-49
2022/07/12 04:23:47;;;;;;;1.67;1.60;;;;;;;17.50;61.25;102266.72;4997844;28;96876;-47
2022/07/12 04:26:12;;;;;;;2.00;1.80;;;;;;;17.51;61.35;102265.47;4995551;28;96721;-51
2022/07/12 04:28:37;;;;;;;2.90;1.77;;;;;;;17.54;61.35;102266.50;4997416;28;97408;-51
2022/07/12 04:31:03;;;;;;;2.20;2.10;;;;;;;17.59;61.32;102265.72;4998340;28;97119;-50
2022/07/12 04:33:28;;;;;;;1.40;1.40;;;;;;;17.61;61.38;102269.53;5000832;28;97042;-50
2022/07/12 04:35:54;;;;;;;1.73;1.63;;;;;;;17.64;61.23;102271.31;4998349;28;96781;-50
2022/07/12 04:38:19;;;;;;;2.07;1.97;;;;;;;17.69;61.29;102270.56;5003751;28;97311;-50
2022/07/12 04:40:45;;;;;;;2.67;2.47;;;;;;;17.74;61.30;102269.06;5000441;28;103162;-50
2022/07/12 04:43:10;;;;;;;2.30;2.10;;;;;;;17.78;61.36;102275.91;5000277;28;96873;-50
2022/07/12 04:45:36;;;;;;;2.10;2.00;;;;;;;17.80;61.33;102278.94;4994687;28;97239;-51
2022/07/12 04:48:02;;;;;;;1.60;1.50;;;;;;;17.85;61.43;102280.22;4995870;28;97271;-50
2022/07/12 04:50:27;;;;;;;1.60;1.50;;;;;;;17.88;61.32;102282.75;4997680;28;97347;-51
2022/07/12 04:52:52;;;;;;;2.53;2.37;;;;;;;17.92;61.43;102280.50;4996019;28;97022;-53
2022/07/12 04:55:18;;;;;;;3.37;2.47;;;;;;;17.97;61.30;102285.28;4993625;28;97722;-49
2022/07/12 04:57:43;;;;;;;3.13;2.07;;;;;;;18.02;61.32;102281.00;4997533;28;98565;-51
2022/07/12 05:00:09;;;;;;;2.40;2.30;;;;;;;18.07;61.40;102280.25;4999914;28;98312;-51
2022/07/12 05:02:35;;;;;;;2.40;2.30;;;;;;;18.12;61.45;102282.28;5000827;28;96784;-49
2022/07/12 05:05:00;;;;;;;2.33;2.23;;;;;;;18.17;61.39;102280.78;5002724;28;97258;-50
2022/07/12 05:07:25;;;;;;;2.73;2.53;;;;;;;18.21;61.45;102284.81;4997698;28;105967;-50
2022/07/12 05:09:51;;;;;;;2.53;2.43;;;;;;;18.27;61.29;102276.44;4997703;28;96715;-51
2022/07/12 05:12:17;;;;;;;2.10;2.00;;;;;;;18.33;61.27;102268.84;4999022;28;96962;-49
2022/07/12 05:14:43;;;;;;;2.63;2.43;;;;;;;18.38;61.26;102273.66;4995804;28;97316;-50
2022/07/12 05:17:09;;;;;;;2.20;2.10;;;;;;;18.45;61.09;102273.19;4997435;28;102615;-51
2022/07/12 05:19:34;;;;;;;1.93;1.83;;;;;;;18.51;61.04;102276.72;4992797;28;97964;-51
2022/07/12 05:21:59;;;;;;;2.40;2.10;;;;;;;18.57;61.15;102271.91;4998356;28;97039;-50
2022/07/12 05:24:25;;;;;;;2.87;2.67;;;;;;;18.62;60.89;102273.94;5004844;28;97010;-51
2022/07/12 05:26:50;;;;;;;3.27;3.07;;;;;;;18.67;60.98;102273.91;4997406;28;97203;-51
2022/07/12 05:29:16;;;;;;;2.70;2.60;;;;;;;18.74;60.84;102275.41;4992123;28;97222;-51
2022/07/12 05:31:41;;;;;;;3.20;2.70;;;;;;;18.80;60.80;102286.56;4990651;28;97408;-48
2022/07/12 05:34:06;;;;;;;3.03;2.83;;;;;;;18.84;60.74;102289.84;5000040;28;96861;-50
2022/07/12 05:36:32;;;;;;;3.20;2.93;;;;;;;18.89;60.92;102297.47;4999332;28;97432;-51
2022/07/12 05:38:57;;;;;;;2.93;2.73;;;;;;;18.94;60.74;102300.22;5001719;28;97363;-51
2022/07/12 05:41:22;;;;;;;3.23;3.03;;;;;;;18.99;60.67;102287.53;5000547;28;97534;-50
2022/07/12 05:43:48;;;;;;;4.03;3.63;;;;;;;19.01;60.56;102282.97;5001905;27;97436;-51
2022/07/12 05:46:13;;;;;;;3.13;2.93;;;;;;;19.05;60.59;102277.88;4987610;28;100402;-50
2022/07/12 05:48:39;;;;;;;3.03;2.80;;;;;;;19.13;60.39;102283.69;4989527;28;97661;-51
2022/07/12 05:53:48;;;;;;;4.20;3.03;;;;;;;19.27;60.52;102277.03;4995633;28;96896;-50
2022/07/12 05:56:14;;;;;;;2.90;2.63;;;;;;;19.33;60.41;102289.69;4998562;28;97107;-50
2022/07/12 05:58:40;;;;;;;2.87;2.67;;;;;;;19.38;60.26;102280.56;4995689;28;97310;-50
2022/07/12 06:01:06;;;;;;;3.07;2.77;;;;;;;19.44;60.32;102278.50;5000525;28;96879;-51
2022/07/12 06:03:31;;;;;;;2.00;1.90;;;;;;;19.52;59.97;102275.94;5003104;28;97001;-51
2022/07/12 06:05:57;;;;;;;2.20;2.00;;;;;;;19.60;60.06;102282.50;4994788;28;96656;-50
2022/07/12 06:08:22;;;;;;;1.57;1.47;;;;;;;19.69;59.92;102284.22;4995217;28;97507;-50
2022/07/12 06:10:47;;;;;;;2.60;1.87;;;;;;;19.76;59.96;102290.03;4991195;28;97021;-51
2022/07/12 06:13:13;;;;;;;1.80;1.70;;;;;;;19.84;59.94;102290.97;5000866;27;96945;-50
2022/07/12 06:15:38;;;;;;;1.70;1.60;;;;;;;19.88;59.46;102302.63;4993090;28;97029;-51
2022/07/12 06:18:03;;;;;;;1.33;1.33;;;;;;;19.91;59.41;102303.63;4994423;28;100336;-50
2022/07/12 06:20:29;;;;;;;1.40;1.30;;;;;;;19.93;59.30;102301.84;4996296;28;97098;-50
2022/07/12 06:22:55;;;;;;;1.60;1.50;;;;;;;19.96;59.10;102300.06;4999666;28;97373;-50
2022/07/12 06:25:21;;;;;;;1.07;0.97;;;;;;;19.99;59.17;102296.22;4996580;28;97011;-50
2022/07/12 06:27:47;;;;;;;1.40;1.30;;;;;;;20.07;58.70;102294.38;4994769;28;97611;-50
2022/07/12 06:30:15;;;;;;;1.27;1.00;;;;;;;20.14;58.74;102291.00;4993905;28;97585;-49
2022/07/12 06:32:40;;;;;;;0.90;0.90;;;;;;;20.19;58.61;102291.00;4991196;28;97042;-49
2022/07/12 06:35:06;;;;;;;1.33;1.30;;;;;;;20.28;58.50;102294.75;4996670;28;98272;-50
2022/07/12 06:37:31;;;;;;;1.10;1.10;;;;;;;20.32;58.38;102289.63;4994120;28;98484;-50
2022/07/12 06:39:56;;;;;;;1.00;1.00;;;;;;;20.40;58.09;102299.72;4993996;28;97087;-51
2022/07/12 06:42:22;;;;;;;1.03;1.03;;;;;;;20.41;58.23;102298.47;4998249;28;102744;-49
2022/07/12 06:44:47;;;;;;;1.33;1.33;;;;;;;20.42;58.08;102294.38;4996621;28;97349;-50
2022/07/12 06:47:12;;;;;;;1.40;1.30;;;;;;;20.41;57.85;102297.69;4998659;28;97475;-50
2022/07/12 06:49:38;;;;;;;1.20;1.20;;;;;;;20.43;57.77;102300.72;4995862;28;96871;-50
2022/07/12 06:52:03;;;;;;;1.67;1.27;;;;;;;20.49;57.73;102299.41;4996140;28;97653;-50
2022/07/12 06:54:29;;;;;;;1.50;1.33;;;;;;;20.53;57.42;102293.53;4991196;28;97540;-50
2022/07/12 06:56:54;;;;;;;1.37;1.37;;;;;;;20.59;57.40;102297.78;4994403;28;97213;-50
2022/07/12 06:59:19;;;;;;;1.30;1.20;;;;;;;20.68;57.50;102293.91;4990187;28;97378;-50
2022/07/12 07:01:45;;;;;;;1.23;1.13;;;;;;;20.80;57.31;102296.06;4996612;28;96986;-51
2022/07/12 07:04:10;;;;;;;1.10;1.00;;;;;;;20.87;57.01;102291.91;4995213;28;97642;-50
2022/07/12 07:06:35;;;;;;;1.47;1.37;;;;;;;20.92;56.80;102294.63;4998511;28;97159;-50
2022/07/12 07:09:01;;;;;;;1.27;1.27;;;;;;;20.98;56.72;102299.44;4996241;28;97632;-50
2022/07/12 07:11:26;;;;;;;1.00;1.00;;;;;;;20.99;56.39;102298.16;4997648;28;99011;-50
2022/07/12 07:13:53;;;;;;;0.80;0.80;;;;;;;20.99;56.49;102295.34;4994400;28;97137;-49
2022/07/12 07:16:22;;;;;;;1.33;1.23;;;;;;;21.06;56.31;102294.78;4989808;28;99459;-50
2022/07/12 07:18:47;;;;;;;1.07;1.07;;;;;;;21.18;56.28;102298.97;4991883;28;96950;-50
2022/07/12 07:21:12;;;;;;;1.23;1.13;;;;;;;21.24;56.13;102283.63;4993639;28;97288;-50
2022/07/12 07:23:37;;;;;;;1.53;1.20;;;;;;;21.28;55.92;102288.91;4990006;28;98230;-50
2022/07/12 07:26:03;;;;;;;1.53;1.50;;;;;;;21.37;55.93;102294.91;4992836;28;97793;-50
2022/07/12 07:28:28;;;;;;;0.90;0.90;;;;;;;21.48;55.61;102294.00;5000504;28;97288;-50
2022/07/12 07:30:54;;;;;;;1.43;1.33;;;;;;;21.44;55.37;102299.91;4995193;28;97021;-50
2022/07/12 07:33:24;;;;;;;1.57;1.47;;;;;;;21.42;55.13;102298.94;4995722;28;97287;-50
2022/07/12 07:35:50;;;;;;;1.13;1.13;;;;;;;21.47;55.32;102295.31;4993913;28;97189;-51
2022/07/12 07:38:17;;;;;;;1.20;1.10;;;;;;;21.49;55.28;102293.47;4994719;28;96781;-50
2022/07/12 07:40:42;;;;;;;1.10;1.00;;;;;;;21.56;55.48;102284.47;4990728;28;97344;-50
2022/07/12 07:43:07;;;;;;;1.10;1.10;;;;;;;21.63;55.23;102285.91;4996799;27;97317;-50
2022/07/12 07:45:33;;;;;;;1.00;1.00;;;;;;;21.69;55.01;102283.78;4989790;28;98034;-51
2022/07/12 07:47:58;;;;;;;1.27;1.10;;;;;;;21.61;54.74;102283.63;4992189;28;97632;-50
2022/07/12 07:50:24;;;;;;;0.90;0.90;;;;;;;21.48;54.83;102274.41;4996890;28;97139;-51
2022/07/12 07:52:51;;;;;;;1.20;1.10;;;;;;;21.50;55.15;102278.19;4993511;28;97403;-50
2022/07/12 07:55:16;;;;;;;3.03;0.90;;;;;;;21.61;55.00;102277.28;5000068;28;97243;-51
2022/07/12 07:57:42;;;;;;;1.63;1.10;;;;;;;21.72;54.71;102273.56;4999403;28;97126;-50
2022/07/12 08:00:07;;;;;;;1.10;1.10;;;;;;;21.73;54.40;102273.03;4994091;28;97431;-51
2022/07/12 08:02:33;;;;;;;1.10;1.07;;;;;;;21.76;54.29;102276.81;4996137;28;98189;-50
2022/07/12 08:04:58;;;;;;;1.10;1.00;;;;;;;21.77;54.29;102281.91;4989333;28;97587;-50
2022/07/12 08:07:24;;;;;;;0.87;0.83;;;;;;;21.82;54.41;102278.22;4996958;28;97522;-51
2022/07/12 08:09:49;;;;;;;0.90;0.90;;;;;;;21.92;54.20;102281.44;4993645;28;97270;-50
2022/07/12 08:12:14;;;;;;;0.90;0.90;;;;;;;22.00;54.21;102280.28;4996540;28;98320;-50
2022/07/12 08:14:40;;;;;;;1.10;1.00;;;;;;;22.08;53.87;102281.16;4999657;28;97468;-50
2022/07/12 08:17:05;;;;;;;1.20;1.10;;;;;;;22.10;53.91;102281.41;4997461;28;97169;-49
2022/07/12 08:19:30;;;;;;;1.37;1.30;;;;;;;22.13;53.67;102287.97;4997578;28;97365;-50
2022/07/12 08:21:56;;;;;;;1.33;1.10;;;;;;;22.20;53.70;102278.94;4994165;28;97389;-50
2022/07/12 08:24:21;;;;;;;0.87;0.87;;;;;;;22.28;53.69;102277.78;5000254;28;97827;-50
2022/07/12 08:26:46;;;;;;;1.27;0.97;;;;;;;22.37;53.43;102271.00;4996747;28;97285;-50
2022/07/12 08:29:12;;;;;;;0.87;0.87;;;;;;;22.47;53.46;102274.94;5004842;28;97111;-50
2022/07/12 08:31:37;;;;;;;1.00;1.00;;;;;;;22.58;53.28;102271.16;4999375;28;97337;-50
2022/07/12 08:34:03;;;;;;;0.77;0.77;;;;;;;22.65;53.12;102264.94;5001279;28;97445;-50
2022/07/12 08:36:28;;;;;;;1.10;1.00;;;;;;;22.74;52.97;102268.06;4998946;28;97427;-50
2022/07/12 08:38:54;;;;;;;1.43;1.30;;;;;;;22.82;52.89;102271.00;5002296;28;96799;-50
2022/07/12 08:41:19;;;;;;;1.17;1.17;;;;;;;22.91;52.81;102264.97;5004516;28;105854;-50
2022/07/12 08:43:44;;;;;;;0.97;0.97;;;;;;;22.88;52.28;102278.00;5004014;28;96947;-51
2022/07/12 08:46:12;;;;;;;0.87;0.87;;;;;;;22.87;52.60;102275.72;5000716;28;97054;-50
2022/07/12 08:48:39;;;;;;;1.50;1.40;;;;;;;22.98;52.38;102269.91;5001933;28;96928;-50
2022/07/12 08:51:07;;;;;;;1.20;1.20;;;;;;;23.10;52.36;102274.00;4996141;28;97546;-50
2022/07/12 08:53:32;;;;;;;0.87;0.87;;;;;;;23.14;51.97;102280.03;4996735;28;97345;-50
2022/07/12 08:55:58;;;;;;;0.80;0.80;;;;;;;23.20;51.81;102277.88;5002201;28;97283;-50
2022/07/12 08:58:24;;;;;;;1.10;1.00;;;;;;;23.28;51.75;102270.31;4999638;28;97229;-50
2022/07/12 09:00:50;;;;;;;0.87;0.87;;;;;;;23.39;51.71;102278.53;4997816;28;97406;-50
2022/07/12 09:03:15;;;;;;;1.57;1.00;;;;;;;23.33;51.48;102279.94;4992405;28;97139;-50
2022/07/12 09:05:51;;;;;;;0.90;0.90;;;;;;;23.39;51.27;102281.34;4991762;28;96696;-51
2022/07/12 09:08:17;;;;;;;0.90;0.90;;;;;;;23.52;51.39;102275.69;4992461;28;97116;-50
2022/07/12 09:11:03;;;;;;;0.80;0.80;;;;;;;23.66;50.49;102276.41;4998379;28;97448;-51
2022/07/12 09:13:50;;;;;;;1.20;1.10;;;;;;;23.83;50.21;102274.72;5001558;28;97105;-50
2022/07/12 09:16:16;;;;;;;0.90;0.90;;;;;;;23.94;50.49;102275.75;4998123;28;97103;-51
2022/07/12 09:18:43;;;;;;;1.00;0.80;;;;;;;23.90;50.62;102276.09;5003150;28;96882;-51
2022/07/12 09:21:09;;;;;;;0.80;0.80;;;;;;;24.02;50.59;102282.97;5003184;28;102001;-51
2022/07/12 09:23:34;;;;;;;1.40;0.90;;;;;;;24.15;50.46;102270.91;4989031;28;97268;-50
2022/07/12 09:26:00;;;;;;;1.00;1.00;;;;;;;24.34;50.28;102265.81;4988844;28;97795;-51
2022/07/12 09:28:26;;;;;;;0.83;0.83;;;;;;;24.52;49.94;102274.06;4992318;28;97152;-51
2022/07/12 09:30:53;;;;;;;1.10;1.10;;;;;;;24.68;49.51;102263.66;4996154;28;97405;-50
2022/07/12 09:36:13;;;;;;;0.93;0.90;;;;;;;24.96;48.88;102255.22;4997357;28;97369;-51
2022/07/12 09:38:48;;;;;;;1.33;0.97;;;;;;;25.02;48.73;102252.97;4997901;28;96996;-51
2022/07/12 09:41:17;;;;;;;0.70;0.67;;;;;;;25.14;48.27;102248.53;4999140;28;98569;-50
2022/07/12 09:43:42;;;;;;;1.07;1.00;;;;;;;25.24;48.22;102248.75;4998188;28;97290;-51
2022/07/12 09:46:08;;;;;;;0.90;0.60;;;;;;;25.37;47.82;102259.13;4990801;28;97212;-55
2022/07/12 09:48:34;;;;;;;0.87;0.87;;;;;;;25.51;47.47;102255.63;4995139;28;96942;-50
2022/07/12 09:51:02;;;;;;;0.90;0.90;;;;;;;25.56;47.44;102257.53;4990544;28;97308;-50
2022/07/12 09:53:37;;;;;;;1.83;0.90;;;;;;;25.74;47.04;102255.69;4996472;28;98057;-50
2022/07/12 09:56:05;;;;;;;1.47;1.10;;;;;;;25.89;47.12;102252.91;4994801;28;96957;-50
2022/07/12 09:58:36;;;;;;;0.80;0.80;;;;;;;25.98;47.02;102255.16;4996116;28;97242;-51
2022/07/12 10:01:02;;;;;;;0.63;0.60;;;;;;;26.13;47.07;102251.63;4997900;28;97938;-50
2022/07/12 10:03:31;;;;;;;0.70;0.70;;;;;;;26.27;46.66;102256.53;4997145;28;97764;-51
2022/07/12 10:06:00;;;;;;;0.70;0.70;;;;;;;26.39;46.35;102254.06;4995068;28;97090;-51
2022/07/12 10:08:25;;;;;;;1.00;1.00;;;;;;;26.51;46.16;102253.13;4994736;28;97723;-50
2022/07/12 10:10:51;;;;;;;0.60;0.60;;;;;;;26.58;46.10;102246.69;4991512;28;98661;-51
2022/07/12 10:13:19;;;;;;;0.70;0.70;;;;;;;26.64;45.70;102250.09;4995920;28;97119;-50
2022/07/12 10:15:46;;;;;;;0.87;0.87;;;;;;;26.64;45.46;102255.75;4990375;28;97188;-50
2022/07/12 10:18:19;;;;;;;0.70;0.70;;;;;;;26.71;45.20;102249.31;4992429;28;96836;-51
2022/07/12 10:20:49;;;;;;;0.90;0.90;;;;;;;26.82;44.83;102253.09;4994721;28;99236;-50
2022/07/12 10:23:20;;;;;;;0.90;0.90;;;;;;;26.85;45.30;102257.59;4997952;28;97566;-50
2022/07/12 10:25:49;;;;;;;0.67;0.67;;;;;;;26.90;45.26;102254.56;4998786;28;97330;-51
2022/07/12 10:28:15;;;;;;;1.00;1.00;;;;;;;26.97;44.64;102245.31;4999560;28;97239;-52
2022/07/12 10:30:45;;;;;;;1.03;0.90;;;;;;;26.86;43.98;102239.31;4995961;28;98908;-51
2022/07/12 10:33:19;;;;;;;0.80;0.80;;;;;;;26.87;44.02;102230.28;4996561;28;97307;-51
2022/07/12 10:35:59;;;;;;;1.57;0.80;;;;;;;26.95;43.46;102233.84;4998406;28;96994;-50
2022/07/12 10:38:25;;;;;;;0.90;0.90;;;;;;;27.04;44.14;102240.97;4987105;28;97498;-51
2022/07/12 10:40:51;;;;;;;1.00;1.00;;;;;;;27.07;44.25;102236.97;4993347;28;96921;-50
2022/07/12 10:46:25;;;;;;;1.20;0.87;;;;;;;27.08;42.83;102227.19;4992907;28;97035;-50
2022/07/12 10:48:50;;;;;;;0.87;0.87;;;;;;;27.08;43.92;102227.19;4997259;28;97793;-50
2022/07/12 10:51:20;;;;;;;1.13;1.03;;;;;;;27.17;43.89;102230.16;4996508;28;97417;-50
2022/07/12 10:53:48;;;;;;;0.80;0.77;;;;;;;27.21;43.57;102230.53;4995498;28;97252;-51
2022/07/12 10:56:22;;;;;;;1.30;0.77;;;;;;;27.28;42.79;102226.16;4993436;28;97364;-51
2022/07/12 10:58:50;;;;;;;0.90;0.90;;;;;;;27.32;43.33;102221.63;4996132;28;96863;-51
2022/07/12 11:01:31;;;;;;;1.07;1.07;;;;;;;27.42;42.16;102224.59;4991453;28;97303;-51
2022/07/12 11:04:08;;;;;;;1.30;1.20;;;;;;;27.50;41.88;102222.47;4995337;28;97161;-50
2022/07/12 11:06:36;;;;;;;0.80;0.80;;;;;;;27.51;42.71;102215.50;4998775;28;97093;-50
2022/07/12 11:09:20;;;;;;;1.13;1.13;;;;;;;27.52;41.55;102216.25;4993283;28;98838;-50
2022/07/12 11:11:48;;;;;;;1.47;1.37;;;;;;;27.57;42.29;102210.38;4994948;28;97166;-50
2022/07/12 11:14:22;;;;;;;1.17;1.17;;;;;;;27.62;41.86;102215.06;4997936;27;98419;-50
2022/07/12 11:16:49;;;;;;;1.60;1.50;;;;;;;27.71;42.03;102211.59;4994806;28;97378;-50
2022/07/12 11:19:15;;;;;;;1.63;1.23;;;;;;;27.84;42.07;102214.16;4995841;28;96828;-50
2022/07/12 11:21:45;;;;;;;1.80;1.70;;;;;;;27.94;41.42;102212.16;4991260;28;97235;-50
2022/07/12 11:24:18;;;;;;;1.90;1.80;;;;;;;28.02;40.81;102207.22;4996943;28;96916;-50
2022/07/12 11:26:43;;;;;;;1.87;1.77;;;;;;;28.04;41.24;102201.00;4987011;28;96964;-50
2022/07/12 11:29:09;;;;;;;2.33;2.20;;;;;;;28.06;41.48;102198.34;5000662;28;96980;-51
2022/07/12 11:31:35;;;;;;;2.13;2.03;;;;;;;27.99;41.22;102191.41;4997589;28;97466;-50
2022/07/12 11:34:00;;;;;;;2.57;2.47;;;;;;;28.06;40.96;102196.25;4997810;28;97437;-50